createdAt,value
2018-09-24T00:01:27.153Z,12.20
2018-09-24T00:03:55.737Z,12.10
2018-09-24T00:06:24.328Z,12.20
2018-09-24T00:08:52.912Z,12.20
2018-09-24T00:11:21.476Z,12.30
2018-09-24T00:13:50.081Z,12.30
2018-09-24T00:16:18.946Z,12.20
2018-09-24T00:18:47.545Z,12.20
2018-09-24T00:21:16.432Z,12.20
2018-09-24T00:23:45.027Z,12.20
2018-09-24T00:26:13.624Z,12.20
2018-09-24T00:28:42.241Z,12.20
2018-09-24T00:31:10.827Z,12.20
2018-09-24T00:33:39.416Z,12.10
2018-09-24T00:36:08.560Z,12.00
2018-09-24T00:38:37.266Z,12.00
2018-09-24T00:41:05.876Z,11.90
2018-09-24T00:43:34.473Z,11.80
2018-09-24T00:46:03.089Z,11.90
2018-09-24T00:48:31.680Z,12.00
2018-09-24T00:51:00.252Z,11.80
2018-09-24T00:53:29.175Z,12.00
2018-09-24T00:55:57.744Z,12.10
2018-09-24T00:58:26.380Z,12.00
2018-09-24T01:00:55.215Z,12.00
2018-09-24T01:03:23.832Z,12.10
2018-09-24T01:05:52.410Z,12.10
2018-09-24T01:08:21.152Z,12.10
2018-09-24T01:10:49.733Z,12.00
2018-09-24T01:13:18.349Z,12.00
2018-09-24T01:15:47.005Z,12.00
2018-09-24T01:18:15.574Z,12.10
2018-09-24T01:20:44.164Z,12.00
2018-09-24T01:23:12.784Z,11.90
2018-09-24T01:25:42.898Z,11.90
2018-09-24T01:28:11.484Z,11.90
2018-09-24T01:30:40.072Z,11.80
2018-09-24T01:33:08.650Z,11.80
2018-09-24T01:35:37.236Z,11.90
2018-09-24T01:38:05.844Z,11.80
2018-09-24T01:40:34.757Z,11.80
2018-09-24T01:43:03.326Z,11.80
2018-09-24T01:45:32.077Z,11.70
2018-09-24T01:48:00.641Z,11.80
2018-09-24T01:50:29.283Z,11.70
2018-09-24T01:53:02.756Z,11.70
2018-09-24T01:55:31.348Z,11.60
2018-09-24T01:58:00.065Z,11.60
2018-09-24T02:00:28.664Z,11.40
2018-09-24T02:02:57.234Z,11.40
2018-09-24T02:05:26.285Z,11.40
2018-09-24T02:07:54.869Z,11.40
2018-09-24T02:10:25.024Z,11.40
2018-09-24T02:12:55.621Z,11.50
2018-09-24T02:15:25.972Z,11.50
2018-09-24T02:17:54.640Z,11.50
2018-09-24T02:20:23.229Z,11.50
2018-09-24T02:22:51.799Z,11.60
2018-09-24T02:25:20.409Z,11.60
2018-09-24T02:27:49.076Z,11.40
2018-09-24T02:30:18.685Z,11.40
2018-09-24T02:32:47.272Z,11.30
2018-09-24T02:35:16.161Z,11.30
2018-09-24T02:37:44.746Z,11.30
2018-09-24T02:40:18.956Z,11.30
2018-09-24T02:42:47.821Z,11.30
2018-09-24T02:45:16.583Z,11.20
2018-09-24T02:47:45.369Z,11.30
2018-09-24T02:50:13.937Z,11.30
2018-09-24T02:52:42.567Z,11.20
2018-09-24T02:55:11.934Z,11.30
2018-09-24T02:57:40.544Z,11.30
2018-09-24T03:00:09.176Z,11.30
2018-09-24T03:02:38.085Z,11.20
2018-09-24T03:05:06.720Z,11.10
2018-09-24T03:07:35.620Z,11.10
2018-09-24T03:10:04.260Z,11.10
2018-09-24T03:12:32.953Z,11.10
2018-09-24T03:15:01.527Z,11.20
2018-09-24T03:17:30.189Z,11.10
2018-09-24T03:19:58.745Z,11.20
2018-09-24T03:22:27.350Z,11.20
2018-09-24T03:24:56.092Z,11.20
2018-09-24T03:27:25.032Z,11.20
2018-09-24T03:29:53.593Z,11.10
2018-09-24T03:32:22.209Z,11.20
2018-09-24T03:34:50.764Z,11.20
2018-09-24T03:37:19.374Z,11.20
2018-09-24T03:39:47.959Z,11.20
2018-09-24T03:42:16.550Z,11.10
2018-09-24T03:44:45.127Z,11.00
2018-09-24T03:47:13.737Z,11.10
2018-09-24T03:49:42.329Z,11.10
2018-09-24T03:52:10.913Z,11.20
2018-09-24T03:54:39.505Z,11.20
2018-09-24T03:57:08.145Z,11.10
2018-09-24T03:59:36.712Z,11.10
2018-09-24T04:02:06.000Z,11.00
2018-09-24T04:04:39.841Z,11.00
2018-09-24T04:07:13.655Z,11.00
2018-09-24T04:09:47.537Z,11.10
2018-09-24T04:12:21.439Z,11.00
2018-09-24T04:14:55.252Z,11.10
2018-09-24T04:17:29.168Z,11.10
2018-09-24T04:20:03.109Z,11.10
2018-09-24T04:22:36.945Z,11.00
2018-09-24T04:25:10.783Z,11.00
2018-09-24T04:27:44.725Z,10.90
2018-09-24T04:30:18.596Z,11.00
2018-09-24T04:32:52.546Z,11.00
2018-09-24T04:35:26.360Z,10.90
2018-09-24T04:38:00.377Z,10.80
2018-09-24T04:40:34.349Z,10.80
2018-09-24T04:43:09.129Z,10.70
2018-09-24T04:45:43.201Z,10.70
2018-09-24T04:48:17.137Z,10.60
2018-09-24T04:50:51.133Z,10.50
2018-09-24T04:53:24.955Z,10.30
2018-09-24T04:55:58.893Z,10.30
2018-09-24T04:58:32.920Z,10.30
2018-09-24T05:01:06.820Z,10.10
2018-09-24T05:03:40.839Z,10.10
2018-09-24T05:06:14.796Z,10.00
2018-09-24T05:08:48.641Z,9.90
2018-09-24T05:11:22.585Z,10.00
2018-09-24T05:13:56.310Z,9.90
2018-09-24T05:16:30.287Z,9.80
2018-09-24T05:19:04.257Z,9.60
2018-09-24T05:21:38.102Z,9.70
2018-09-24T05:24:13.090Z,9.70
2018-09-24T05:26:46.880Z,9.70
2018-09-24T05:29:20.800Z,9.60
2018-09-24T05:31:54.761Z,9.60
2018-09-24T05:34:28.757Z,9.60
2018-09-24T05:37:02.534Z,9.50
2018-09-24T05:39:36.271Z,9.50
2018-09-24T05:42:10.229Z,9.50
2018-09-24T05:44:44.150Z,9.50
2018-09-24T05:47:18.037Z,9.50
2018-09-24T05:49:52.162Z,9.50
2018-09-24T05:52:25.973Z,9.40
2018-09-24T05:55:00.261Z,9.20
2018-09-24T05:57:34.232Z,9.20
2018-09-24T06:00:08.165Z,9.10
2018-09-24T06:02:42.109Z,9.10
2018-09-24T06:05:16.080Z,9.10
2018-09-24T06:07:50.182Z,9.10
2018-09-24T06:10:24.011Z,9.20
2018-09-24T06:12:57.711Z,9.20
2018-09-24T06:15:31.540Z,9.20
2018-09-24T06:18:05.337Z,9.30
2018-09-24T06:20:39.273Z,9.30
2018-09-24T06:23:13.169Z,9.20
2018-09-24T06:25:47.152Z,9.20
2018-09-24T06:28:21.100Z,9.30
2018-09-24T06:30:55.099Z,9.30
2018-09-24T06:33:29.063Z,9.30
2018-09-24T06:36:03.023Z,9.40
2018-09-24T06:38:37.011Z,9.50
2018-09-24T06:41:11.008Z,9.80
2018-09-24T06:43:44.972Z,10.50
2018-09-24T06:46:19.764Z,11.20
2018-09-24T06:48:53.681Z,11.90
2018-09-24T06:51:27.617Z,12.70
2018-09-24T06:54:01.389Z,13.40
2018-09-24T06:56:35.235Z,14.10
2018-09-24T06:59:10.177Z,14.60
2018-09-24T07:01:44.111Z,15.10
2018-09-24T07:04:18.033Z,15.80
2018-09-24T07:06:51.792Z,16.50
2018-09-24T07:09:25.810Z,17.00
2018-09-24T07:11:59.752Z,17.50
2018-09-24T07:14:33.482Z,17.60
2018-09-24T07:17:07.213Z,18.00
2018-09-24T07:19:41.131Z,18.50
2018-09-24T07:22:14.966Z,18.50
2018-09-24T07:24:48.913Z,18.90
2018-09-24T07:27:22.820Z,19.60
2018-09-24T07:29:57.056Z,20.00
2018-09-24T07:32:30.905Z,20.60
2018-09-24T07:35:05.077Z,20.80
2018-09-24T07:37:39.042Z,21.20
2018-09-24T07:40:12.918Z,21.60
2018-09-24T07:42:46.881Z,22.20
2018-09-24T07:45:20.847Z,22.80
2018-09-24T07:47:54.685Z,23.00
2018-09-24T07:50:29.621Z,23.10
2018-09-24T07:53:04.544Z,22.90
2018-09-24T07:55:38.360Z,23.00
2018-09-24T07:58:16.049Z,23.60
2018-09-24T08:00:50.029Z,23.80
2018-09-24T08:03:23.762Z,24.30
2018-09-24T08:05:57.572Z,24.80
2018-09-24T08:08:31.519Z,24.90
2018-09-24T08:11:05.204Z,25.00
2018-09-24T08:13:39.044Z,25.20
2018-09-24T08:16:12.965Z,24.80
2018-09-24T08:18:46.913Z,24.60
2018-09-24T08:21:20.856Z,25.00
2018-09-24T08:23:57.325Z,25.70
2018-09-24T08:26:31.264Z,26.00
2018-09-24T08:29:05.045Z,26.70
2018-09-24T08:31:38.919Z,26.90
2018-09-24T08:34:12.804Z,27.70
2018-09-24T08:36:47.197Z,27.80
2018-09-24T08:39:21.501Z,27.90
2018-09-24T08:41:55.420Z,27.80
2018-09-24T08:44:29.352Z,27.90
2018-09-24T08:47:03.943Z,28.40
2018-09-24T08:49:37.675Z,28.50
2018-09-24T08:52:11.600Z,28.20
2018-09-24T08:54:45.569Z,28.20
2018-09-24T08:57:20.835Z,28.10
2018-09-24T08:59:54.741Z,28.00
2018-09-24T09:02:28.590Z,26.80
2018-09-24T09:05:02.580Z,26.30
2018-09-24T09:07:36.429Z,26.00
2018-09-24T09:10:10.442Z,26.00
2018-09-24T09:12:44.233Z,25.90
2018-09-24T09:15:18.086Z,26.50
2018-09-24T09:17:51.817Z,26.60
2018-09-24T09:20:25.637Z,26.50
2018-09-24T09:22:59.553Z,27.10
2018-09-24T09:25:33.578Z,27.50
2018-09-24T09:28:07.574Z,26.60
2018-09-24T09:30:41.505Z,26.90
2018-09-24T09:33:15.664Z,27.00
2018-09-24T09:35:49.633Z,27.40
2018-09-24T09:38:23.576Z,27.00
2018-09-24T09:40:57.609Z,27.10
2018-09-24T09:43:31.457Z,26.30
2018-09-24T09:46:05.203Z,26.90
2018-09-24T09:48:39.004Z,27.00
2018-09-24T09:51:12.942Z,27.10
2018-09-24T09:53:46.950Z,26.60
2018-09-24T09:56:20.716Z,26.60
2018-09-24T09:58:54.661Z,27.10
2018-09-24T10:01:28.426Z,27.40
2018-09-24T10:04:02.364Z,27.60
2018-09-24T10:06:36.232Z,27.70
2018-09-24T10:09:12.216Z,28.40
2018-09-24T10:11:46.093Z,28.40
2018-09-24T10:14:19.905Z,28.20
2018-09-24T10:16:53.829Z,28.30
2018-09-24T10:19:27.592Z,27.90
2018-09-24T10:22:01.504Z,27.50
2018-09-24T10:24:35.425Z,28.50
2018-09-24T10:27:09.360Z,29.00
2018-09-24T10:29:43.300Z,29.40
2018-09-24T10:32:17.116Z,29.00
2018-09-24T10:34:51.086Z,28.90
2018-09-24T10:37:25.265Z,28.50
2018-09-24T10:39:59.121Z,27.90
2018-09-24T10:42:33.050Z,28.10
2018-09-24T10:45:06.980Z,28.00
2018-09-24T10:47:40.973Z,28.10
2018-09-24T10:50:14.793Z,28.10
2018-09-24T10:52:48.669Z,28.30
2018-09-24T10:55:22.630Z,28.10
2018-09-24T10:57:56.845Z,27.70
2018-09-24T11:00:30.859Z,27.30
2018-09-24T11:03:04.610Z,27.30
2018-09-24T11:05:39.221Z,26.80
2018-09-24T11:08:13.081Z,26.20
2018-09-24T11:10:47.623Z,25.70
2018-09-24T11:13:21.578Z,25.10
2018-09-24T11:15:55.632Z,24.90
2018-09-24T11:18:30.307Z,24.70
2018-09-24T11:21:04.274Z,24.40
2018-09-24T11:23:38.082Z,24.10
2018-09-24T11:26:12.025Z,23.70
2018-09-24T11:28:46.441Z,23.70
2018-09-24T11:31:20.381Z,23.60
2018-09-24T11:33:54.304Z,22.90
2018-09-24T11:36:28.392Z,22.50
2018-09-24T11:39:03.411Z,22.40
2018-09-24T11:41:37.373Z,22.40
2018-09-24T11:44:11.073Z,22.20
2018-09-24T11:46:45.086Z,21.90
2018-09-24T11:49:18.872Z,21.80
2018-09-24T11:51:52.845Z,21.40
2018-09-24T11:54:26.804Z,21.00
2018-09-24T11:57:00.673Z,21.00
2018-09-24T11:59:41.987Z,20.90
2018-09-24T12:02:15.833Z,20.90
2018-09-24T12:04:49.736Z,20.00
2018-09-24T12:07:23.585Z,19.70
2018-09-24T12:09:57.546Z,20.10
2018-09-24T12:12:31.369Z,20.40
2018-09-24T12:15:05.360Z,20.40
2018-09-24T12:17:39.300Z,20.20
2018-09-24T12:20:13.256Z,20.20
2018-09-24T12:22:48.308Z,20.00
2018-09-24T12:25:22.298Z,20.10
2018-09-24T12:27:56.268Z,20.20
2018-09-24T12:30:30.166Z,20.00
2018-09-24T12:33:03.960Z,20.10
2018-09-24T12:35:37.748Z,20.10
2018-09-24T12:38:11.669Z,20.00
2018-09-24T12:40:45.580Z,19.80
2018-09-24T12:43:19.519Z,20.00
2018-09-24T12:45:53.444Z,20.00
2018-09-24T12:48:27.436Z,20.00
2018-09-24T12:51:01.102Z,19.80
2018-09-24T12:53:34.941Z,19.60
2018-09-24T12:56:08.961Z,19.60
2018-09-24T12:58:42.898Z,19.40
2018-09-24T13:01:16.816Z,19.70
2018-09-24T13:03:50.801Z,19.70
2018-09-24T13:06:24.597Z,19.50
2018-09-24T13:08:58.288Z,19.50
2018-09-24T13:11:32.252Z,19.50
2018-09-24T13:14:06.117Z,19.20
2018-09-24T13:16:40.068Z,19.20
2018-09-24T13:19:13.862Z,18.90
2018-09-24T13:21:47.640Z,18.40
2018-09-24T13:24:21.535Z,18.50
2018-09-24T13:26:55.380Z,18.60
2018-09-24T13:29:29.287Z,18.80
2018-09-24T13:32:03.018Z,18.90
2018-09-24T13:34:36.975Z,18.90
2018-09-24T13:37:11.436Z,18.90
2018-09-24T13:39:45.416Z,18.80
2018-09-24T13:42:19.446Z,18.80
2018-09-24T13:44:53.412Z,18.90
2018-09-24T13:47:27.358Z,19.00
2018-09-24T13:50:01.249Z,19.00
2018-09-24T13:52:35.178Z,18.80
2018-09-24T13:55:09.084Z,18.70
2018-09-24T13:57:42.930Z,18.90
2018-09-24T14:00:16.872Z,19.00
2018-09-24T14:02:50.780Z,18.90
2018-09-24T14:05:24.577Z,18.80
2018-09-24T14:07:58.502Z,18.90
2018-09-24T14:10:33.573Z,18.90
2018-09-24T14:13:07.424Z,19.00
2018-09-24T14:15:41.256Z,19.20
2018-09-24T14:18:15.181Z,19.20
2018-09-24T14:20:49.205Z,19.10
2018-09-24T14:23:23.073Z,18.90
2018-09-24T14:25:57.005Z,18.80
2018-09-24T14:28:31.029Z,18.90
2018-09-24T14:31:04.770Z,19.10
2018-09-24T14:33:38.737Z,19.10
2018-09-24T14:36:12.652Z,19.10
2018-09-24T14:38:46.616Z,19.00
2018-09-24T14:41:20.565Z,19.00
2018-09-24T14:43:54.502Z,19.00
2018-09-24T14:46:28.385Z,18.80
2018-09-24T14:49:02.348Z,18.70
2018-09-24T14:51:36.197Z,18.60
2018-09-24T14:54:10.198Z,18.80
2018-09-24T14:56:44.130Z,18.70
2018-09-24T14:59:18.062Z,18.50
2018-09-24T15:01:51.721Z,18.50
2018-09-24T15:04:25.576Z,18.50
2018-09-24T15:06:59.471Z,18.50
2018-09-24T15:09:33.261Z,18.40
2018-09-24T15:12:07.013Z,18.20
2018-09-24T15:14:41.020Z,18.20
2018-09-24T15:17:14.693Z,18.00
2018-09-24T15:19:48.634Z,17.80
2018-09-24T15:22:22.566Z,17.60
2018-09-24T15:24:56.472Z,17.50
2018-09-24T15:27:30.404Z,17.60
2018-09-24T15:30:04.380Z,17.60
2018-09-24T15:32:38.317Z,17.40
2018-09-24T15:35:12.307Z,17.30
2018-09-24T15:37:46.026Z,17.40
2018-09-24T15:40:19.774Z,17.50
2018-09-24T15:42:53.553Z,17.50
2018-09-24T15:45:27.559Z,17.60
2018-09-24T15:48:01.204Z,17.50
2018-09-24T15:50:35.127Z,17.40
2018-09-24T15:53:09.086Z,17.20
2018-09-24T15:55:43.085Z,17.10
2018-09-24T15:58:17.932Z,17.20
2018-09-24T16:00:51.897Z,17.10
2018-09-24T16:03:25.832Z,17.10
2018-09-24T16:05:59.758Z,17.10
2018-09-24T16:08:33.668Z,17.20
2018-09-24T16:11:07.408Z,17.10
2018-09-24T16:13:41.458Z,17.00
2018-09-24T16:16:15.473Z,16.90
2018-09-24T16:18:49.418Z,16.80
2018-09-24T16:21:23.355Z,16.70
2018-09-24T16:23:57.117Z,16.70
2018-09-24T16:26:30.905Z,16.60
2018-09-24T16:29:04.824Z,16.50
2018-09-24T16:31:38.769Z,16.50
2018-09-24T16:34:12.793Z,16.40
2018-09-24T16:36:46.550Z,16.30
2018-09-24T16:39:20.345Z,16.20
2018-09-24T16:41:54.180Z,16.20
2018-09-24T16:44:27.976Z,16.20
2018-09-24T16:47:01.867Z,16.10
2018-09-24T16:49:35.807Z,16.10
2018-09-24T16:52:09.759Z,16.00
2018-09-24T16:54:43.566Z,15.90
2018-09-24T16:57:17.518Z,15.90
2018-09-24T16:59:51.453Z,15.70
2018-09-24T17:02:25.264Z,15.60
2018-09-24T17:04:59.041Z,15.60
2018-09-24T17:07:33.025Z,15.50
2018-09-24T17:10:06.940Z,15.30
2018-09-24T17:12:40.942Z,15.20
2018-09-24T17:15:15.043Z,15.00
2018-09-24T17:17:48.890Z,14.70
2018-09-24T17:20:22.832Z,14.70
2018-09-24T17:22:56.647Z,14.50
2018-09-24T17:25:30.709Z,14.40
2018-09-24T17:28:04.678Z,14.20
2018-09-24T17:30:38.638Z,14.10
2018-09-24T17:33:12.576Z,13.80
2018-09-24T17:35:46.551Z,13.70
2018-09-24T17:38:20.367Z,13.60
2018-09-24T17:40:54.289Z,13.50
2018-09-24T17:43:28.197Z,13.30
2018-09-24T17:46:02.148Z,13.20
2018-09-24T17:48:36.030Z,13.20
2018-09-24T17:51:09.924Z,13.00
2018-09-24T17:53:43.870Z,12.90
2018-09-24T17:56:17.563Z,12.80
2018-09-24T17:58:51.470Z,12.70
2018-09-24T18:01:25.428Z,12.50
2018-09-24T18:03:59.189Z,12.30
2018-09-24T18:06:33.025Z,12.20
2018-09-24T18:09:07.142Z,12.10
2018-09-24T18:11:40.939Z,12.00
2018-09-24T18:14:14.716Z,12.10
2018-09-24T18:16:48.594Z,11.90
2018-09-24T18:19:22.353Z,11.70
2018-09-24T18:21:56.249Z,11.50
2018-09-24T18:24:30.065Z,11.50
2018-09-24T18:27:03.930Z,11.40
2018-09-24T18:29:37.925Z,11.30
2018-09-24T18:32:11.798Z,11.20
2018-09-24T18:34:45.657Z,11.20
2018-09-24T18:37:19.667Z,11.00
2018-09-24T18:39:53.508Z,11.00
2018-09-24T18:42:27.568Z,10.90
2018-09-24T18:45:01.351Z,10.80
2018-09-24T18:47:35.265Z,10.80
2018-09-24T18:50:09.132Z,10.70
2018-09-24T18:52:43.086Z,10.60
2018-09-24T18:55:16.984Z,10.50
2018-09-24T18:57:50.972Z,10.40
2018-09-24T19:00:24.936Z,10.40
2018-09-24T19:02:58.882Z,10.50
2018-09-24T19:05:32.744Z,10.30
2018-09-24T19:08:07.562Z,10.40
2018-09-24T19:10:41.564Z,10.30
2018-09-24T19:13:15.582Z,10.30
2018-09-24T19:15:49.614Z,10.20
2018-09-24T19:18:23.525Z,10.20
2018-09-24T19:20:57.425Z,10.30
2018-09-24T19:23:31.370Z,10.30
2018-09-24T19:26:05.289Z,10.40
2018-09-24T19:28:39.326Z,10.40
2018-09-24T19:31:13.376Z,10.50
2018-09-24T19:33:47.678Z,10.50
2018-09-24T19:36:21.636Z,10.50
2018-09-24T19:38:55.481Z,10.60
2018-09-24T19:41:29.464Z,10.70
2018-09-24T19:44:03.172Z,10.70
2018-09-24T19:46:37.091Z,10.70
2018-09-24T19:49:11.106Z,10.70
2018-09-24T19:51:45.017Z,10.70
2018-09-24T19:54:18.765Z,10.70
2018-09-24T19:56:52.452Z,10.70
2018-09-24T19:59:26.365Z,10.80
2018-09-24T20:02:00.070Z,10.70
2018-09-24T20:04:34.029Z,10.80
2018-09-24T20:07:08.296Z,10.80
2018-09-24T20:09:42.204Z,10.80
2018-09-24T20:12:16.173Z,10.70
2018-09-24T20:14:50.126Z,10.70
2018-09-24T20:17:24.080Z,10.80
2018-09-24T20:19:57.849Z,10.80
2018-09-24T20:22:31.731Z,10.90
2018-09-24T20:25:05.725Z,10.90
2018-09-24T20:27:39.656Z,11.00
2018-09-24T20:30:13.664Z,11.10
2018-09-24T20:32:47.624Z,11.20
2018-09-24T20:35:21.588Z,11.20
2018-09-24T20:37:55.487Z,11.30
2018-09-24T20:40:29.452Z,11.30
2018-09-24T20:43:03.402Z,11.20
2018-09-24T20:45:37.109Z,11.20
2018-09-24T20:48:11.081Z,11.20
2018-09-24T20:50:45.014Z,11.20
2018-09-24T20:53:18.860Z,11.10
2018-09-24T20:55:52.829Z,11.10
2018-09-24T20:58:26.825Z,11.10
2018-09-24T21:01:00.686Z,11.10
2018-09-24T21:03:34.489Z,11.10
2018-09-24T21:06:08.446Z,11.10
2018-09-24T21:08:42.240Z,11.20
2018-09-24T21:11:16.138Z,11.10
2018-09-24T21:13:50.179Z,11.10
2018-09-24T21:16:24.233Z,11.00
2018-09-24T21:18:58.206Z,11.00
2018-09-24T21:21:32.136Z,11.20
2018-09-24T21:24:06.540Z,11.10
2018-09-24T21:26:40.345Z,11.10
2018-09-24T21:29:14.353Z,11.10
2018-09-24T21:31:48.214Z,11.10
2018-09-24T21:34:22.096Z,10.90
2018-09-24T21:36:55.884Z,11.00
2018-09-24T21:39:29.725Z,11.10
2018-09-24T21:42:03.898Z,11.10
2018-09-24T21:44:37.758Z,11.10
2018-09-24T21:47:11.765Z,11.20
2018-09-24T21:49:45.892Z,11.10
2018-09-24T21:52:19.862Z,11.10
2018-09-24T21:54:53.656Z,11.00
2018-09-24T21:57:27.471Z,11.00
2018-09-24T22:00:01.266Z,11.00
2018-09-24T22:02:35.172Z,10.90
2018-09-24T22:05:09.096Z,10.90
2018-09-24T22:07:42.881Z,11.00
2018-09-24T22:10:16.806Z,10.80
2018-09-24T22:12:50.738Z,10.80
2018-09-24T22:15:24.736Z,10.80
2018-09-24T22:17:58.655Z,10.80
2018-09-24T22:20:32.639Z,10.80
2018-09-24T22:23:06.633Z,10.80
2018-09-24T22:25:40.405Z,10.90
2018-09-24T22:28:14.340Z,10.90
2018-09-24T22:30:48.086Z,10.90
2018-09-24T22:33:21.996Z,10.80
2018-09-24T22:35:55.940Z,10.90
2018-09-24T22:38:29.905Z,10.70
2018-09-24T22:41:03.724Z,10.80
2018-09-24T22:43:37.636Z,10.70
2018-09-24T22:46:11.306Z,10.70
2018-09-24T22:48:45.240Z,10.70
2018-09-24T22:51:19.108Z,10.50
2018-09-24T22:53:53.073Z,10.50
2018-09-24T22:56:27.030Z,10.50
2018-09-24T22:59:01.032Z,10.30
2018-09-24T23:01:35.004Z,10.20
2018-09-24T23:04:08.997Z,10.10
2018-09-24T23:06:42.885Z,9.90
2018-09-24T23:09:16.828Z,9.70
2018-09-24T23:11:50.741Z,9.70
2018-09-24T23:14:24.685Z,9.70
2018-09-24T23:16:58.609Z,9.60
2018-09-24T23:19:32.524Z,9.50
2018-09-24T23:22:06.461Z,9.40
2018-09-24T23:24:40.452Z,9.20
2018-09-24T23:27:14.188Z,8.90
2018-09-24T23:29:48.033Z,9.00
2018-09-24T23:32:21.727Z,9.10
2018-09-24T23:34:55.656Z,9.00
2018-09-24T23:37:29.591Z,9.00
2018-09-24T23:40:03.545Z,8.90
2018-09-24T23:42:37.314Z,8.70
2018-09-24T23:45:11.286Z,8.80
2018-09-24T23:47:45.273Z,8.60
2018-09-24T23:50:19.112Z,8.50
2018-09-24T23:52:52.983Z,8.50
2018-09-24T23:55:26.764Z,8.50
2018-09-24T23:58:00.462Z,8.50
